To NAV CANADA Home Page Login to a new session Search on AWWS site Feedback and Comments Disclaimer Vers la page française équivalente Tips FAQ What's new on the site To the Forecasts and Observations / NOTAM section To "File a Flight Plan" website Publications and other links Update of the User's profile FIC Telephone Numbers My Weather Data Folder Route Weather Data Regional Weather Data Local Weather Data To the Forecasts and Observations / NOTAM section
Request Generated 04/24/2014 at 18:56:34 UTC . Weather information available at that time is displayed.

METAR/TAF

DAWSON CITY/YT    

SPECI CYDA 241810Z 02005KT 7SM -RA SCT005 OVC020 03/02 A2964 RMK
ST4SC4 SLP056=
METAR CYDA 241800Z 02006KT 7SM -SNRA SCT005 OVC020 02/02 A2964 RMK
ST4SC4 SLP056=
METAR CYDA 241700Z 02006KT 5SM -SNRA BKN004 OVC020 02/01 A2965 RMK
ST6SC2 /R02 SINCE 1500Z SUN DMLY VSBL SLP058=
METAR CYDA 241600Z 11002KT 5SM -SNRA BKN004 OVC020 01/01 A2965 RMK
ST7SC1 VIS E 1 1/2 /R01 SINCE 1500Z SLP059=

TAF CYDA 241740Z 2418/2423 03005KT P6SM OVC020 TEMPO 2418/2423 5SM
-SHRA BR OVC006
RMK NXT FCST WILL BE ISSUED AT 251545Z=
Your time UTC time
Weather data provided by Environment Canada and NAV CANADA